Time;durP1;ratioP1;P1;durP2;ratioP2;P2;SDS_P1;SDS_P2;PMS_P1;PMS_P2;Temp;Humidity;BMP_temperature;BMP_pressure;BME280_temperature;BME280_humidity;BME280_pressure;Samples;Min_cycle;Max_cycle;Signal;HPM_P1;HPM_P2
2021/04/08 00:00:52;;;;;;;11.63;5.80;;;;;;;;;;5115493;27;20867;-62
2021/04/08 00:03:20;;;;;;;13.53;6.23;;;;;;;;;;5115327;28;20481;-62
2021/04/08 00:05:46;;;;;;;16.50;6.53;;;;;;;;;;5115081;28;20488;-61
2021/04/08 00:08:13;;;;;;;15.67;5.73;;;;;;;;;;5115238;27;20946;-61
2021/04/08 00:10:39;;;;;;;19.53;6.27;;;;;;;;;;5114974;28;20445;-62
2021/04/08 00:13:06;;;;;;;18.83;6.27;;;;;;;;;;5115159;28;20841;-62
2021/04/08 00:15:32;;;;;;;17.17;6.13;;;;;;;;;;5114913;28;20448;-62
2021/04/08 00:17:59;;;;;;;15.30;6.20;;;;;;;;;;5114635;28;20476;-62
2021/04/08 00:20:26;;;;;;;14.10;6.07;;;;;;;;;;5114562;28;20517;-62
2021/04/08 00:22:53;;;;;;;17.10;6.43;;;;;;;;;;5114703;27;20491;-61
2021/04/08 00:25:19;;;;;;;24.20;7.40;;;;;;;;;;5114707;28;20906;-61
2021/04/08 00:27:46;;;;;;;22.57;7.47;;;;;;;;;;5115011;28;20471;-62
2021/04/08 00:30:13;;;;;;;20.50;8.87;;;;;;;;;;5114825;28;20824;-60
2021/04/08 00:32:40;;;;;;;21.07;9.80;;;;;;;;;;5114895;28;20465;-61
2021/04/08 00:35:07;;;;;;;17.57;8.13;;;;;;;;;;5114600;28;20446;-62
2021/04/08 00:37:35;;;;;;;20.00;8.97;;;;;;;;;;5114189;28;20449;-62
2021/04/08 00:40:01;;;;;;;18.57;8.67;;;;;;;;;;5114691;28;20441;-62
2021/04/08 00:42:28;;;;;;;19.03;8.43;;;;;;;;;;5114497;28;20474;-62
2021/04/08 00:44:54;;;;;;;19.27;9.57;;;;;;;;;;5114719;28;20481;-62
2021/04/08 00:47:21;;;;;;;21.97;9.57;;;;;;;;;;5113991;28;20442;-62
2021/04/08 00:49:47;;;;;;;19.00;8.60;;;;;;;;;;5114428;28;20446;-62
2021/04/08 00:52:14;;;;;;;22.83;9.73;;;;;;;;;;5113750;28;20450;-62
2021/04/08 00:54:41;;;;;;;18.60;8.80;;;;;;;;;;5114711;28;20434;-62
2021/04/08 00:57:08;;;;;;;21.83;9.40;;;;;;;;;;5114318;28;20454;-62
2021/04/08 00:59:36;;;;;;;20.83;9.80;;;;;;;;;;5114283;28;20445;-61
2021/04/08 01:02:03;;;;;;;18.20;9.00;;;;;;;;;;5114443;28;20445;-62
2021/04/08 01:04:29;;;;;;;22.23;8.93;;;;;;;;;;5114302;28;20448;-62
2021/04/08 01:06:56;;;;;;;20.43;9.30;;;;;;;;;;5113957;28;20445;-62
2021/04/08 01:09:22;;;;;;;20.93;8.37;;;;;;;;;;5114146;28;20950;-62
2021/04/08 01:11:49;;;;;;;16.23;8.47;;;;;;;;;;5114283;28;20448;-61
2021/04/08 01:14:16;;;;;;;17.40;10.13;;;;;;;;;;5113972;28;20470;-62
2021/04/08 01:16:47;;;;;;;20.23;9.43;;;;;;;;;;5113870;28;20441;-62
2021/04/08 01:19:25;;;;;;;21.13;9.27;;;;;;;;;;5113924;28;20441;-62
2021/04/08 01:21:56;;;;;;;19.73;10.63;;;;;;;;;;5114044;28;20472;-62
2021/04/08 01:24:41;;;;;;;27.03;10.80;;;;;;;;;;5114106;28;20452;-62
2021/04/08 01:27:40;;;;;;;19.87;9.50;;;;;;;;;;5113510;28;20450;-62
2021/04/08 01:30:12;;;;;;;19.07;9.73;;;;;;;;;;5050855;28;20448;-62
2021/04/08 01:32:42;;;;;;;20.30;9.80;;;;;;;;;;5050569;28;20563;-62
2021/04/08 01:35:10;;;;;;;18.70;9.67;;;;;;;;;;5082083;28;20441;-61
2021/04/08 01:37:40;;;;;;;21.67;9.37;;;;;;;;;;5113203;28;20459;-62
2021/04/08 01:40:08;;;;;;;23.23;9.77;;;;;;;;;;5113367;28;20456;-62
2021/04/08 01:42:35;;;;;;;18.60;9.60;;;;;;;;;;5113431;28;20581;-62
2021/04/08 01:45:02;;;;;;;19.53;9.60;;;;;;;;;;5113130;28;20477;-61
2021/04/08 01:47:29;;;;;;;19.57;9.70;;;;;;;;;;5113353;28;20449;-61
2021/04/08 01:49:57;;;;;;;17.43;8.97;;;;;;;;;;5113130;28;20829;-61
2021/04/08 01:52:24;;;;;;;17.40;9.50;;;;;;;;;;5113221;28;20462;-62
2021/04/08 01:54:53;;;;;;;15.90;9.10;;;;;;;;;;5113457;28;20441;-62
2021/04/08 01:57:20;;;;;;;15.60;9.03;;;;;;;;;;5113368;28;20487;-61
2021/04/08 01:59:47;;;;;;;17.00;8.50;;;;;;;;;;5113260;28;20449;-62
2021/04/08 02:02:14;;;;;;;15.67;9.07;;;;;;;;;;5112940;28;20445;-62
2021/04/08 02:04:41;;;;;;;15.87;8.27;;;;;;;;;;5112238;28;20567;-62
2021/04/08 02:07:08;;;;;;;22.50;8.90;;;;;;;;;;5112614;28;20445;-62
2021/04/08 02:09:37;;;;;;;20.83;9.77;;;;;;;;;;5113353;28;20446;-64
2021/04/08 02:12:05;;;;;;;24.63;9.63;;;;;;;;;;5112748;27;20468;-62
2021/04/08 02:14:32;;;;;;;24.13;10.07;;;;;;;;;;5112880;28;21157;-62
2021/04/08 02:16:59;;;;;;;21.30;9.70;;;;;;;;;;5112724;28;20449;-62
2021/04/08 02:19:26;;;;;;;22.27;9.73;;;;;;;;;;5112738;28;20438;-62
2021/04/08 02:21:53;;;;;;;23.50;10.97;;;;;;;;;;5112675;28;20453;-62
2021/04/08 02:24:21;;;;;;;24.53;10.27;;;;;;;;;;5112732;28;20473;-62
2021/04/08 02:26:48;;;;;;;25.87;10.67;;;;;;;;;;5112352;28;20489;-62
2021/04/08 02:29:16;;;;;;;28.83;11.83;;;;;;;;;;5112463;28;20447;-62
2021/04/08 02:31:43;;;;;;;24.33;11.37;;;;;;;;;;5112656;28;20453;-61
2021/04/08 02:34:10;;;;;;;25.77;11.40;;;;;;;;;;5112405;28;20511;-62
2021/04/08 02:36:37;;;;;;;26.60;12.20;;;;;;;;;;5112283;28;20449;-62
2021/04/08 02:39:05;;;;;;;26.87;13.03;;;;;;;;;;5112498;28;20449;-62
2021/04/08 02:41:32;;;;;;;25.93;12.43;;;;;;;;;;5112419;28;20467;-62
2021/04/08 02:43:59;;;;;;;23.33;11.80;;;;;;;;;;5112490;28;20468;-62
2021/04/08 02:46:26;;;;;;;34.23;12.47;;;;;;;;;;5111866;28;20901;-62
2021/04/08 02:48:52;;;;;;;27.40;13.10;;;;;;;;;;5112218;28;20441;-62
2021/04/08 02:51:21;;;;;;;25.57;11.73;;;;;;;;;;5112626;28;20442;-62
2021/04/08 02:53:52;;;;;;;25.57;11.73;;;;;;;;;;5112205;28;20472;-61
2021/04/08 02:56:23;;;;;;;21.60;11.37;;;;;;;;;;5111962;28;20445;-63
2021/04/08 02:58:53;;;;;;;27.33;12.97;;;;;;;;;;5112306;28;20462;-63
2021/04/08 03:01:20;;;;;;;29.30;12.57;;;;;;;;;;5112260;28;20446;-64
2021/04/08 03:03:48;;;;;;;28.50;13.83;;;;;;;;;;5112295;28;20837;-63
2021/04/08 03:06:16;;;;;;;34.00;12.70;;;;;;;;;;5112084;28;20534;-63
2021/04/08 03:08:43;;;;;;;28.27;12.53;;;;;;;;;;5112259;28;20974;-64
2021/04/08 03:11:11;;;;;;;24.27;12.00;;;;;;;;;;5112116;28;20449;-63
2021/04/08 03:13:39;;;;;;;28.17;11.90;;;;;;;;;;5112242;28;20468;-63
2021/04/08 03:16:10;;;;;;;28.43;12.20;;;;;;;;;;5114605;28;20441;-65
2021/04/08 03:18:38;;;;;;;29.73;13.50;;;;;;;;;;5116359;28;20454;-63
2021/04/08 03:21:05;;;;;;;26.17;11.97;;;;;;;;;;5116060;27;20437;-63
2021/04/08 03:23:33;;;;;;;28.50;12.17;;;;;;;;;;5115940;28;20475;-63
2021/04/08 03:26:00;;;;;;;22.20;11.40;;;;;;;;;;5115906;28;20473;-63
2021/04/08 03:28:27;;;;;;;26.63;12.10;;;;;;;;;;5115900;28;20452;-63
2021/04/08 03:30:53;;;;;;;25.10;11.17;;;;;;;;;;5116125;28;20460;-63
2021/04/08 03:33:21;;;;;;;35.07;12.50;;;;;;;;;;5115822;28;20465;-63
2021/04/08 03:35:48;;;;;;;24.47;11.73;;;;;;;;;;5115774;28;20946;-63
2021/04/08 03:38:16;;;;;;;34.10;11.83;;;;;;;;;;5115935;28;20452;-63
2021/04/08 03:40:43;;;;;;;28.00;13.47;;;;;;;;;;5115908;28;20493;-63
2021/04/08 03:43:09;;;;;;;31.83;13.10;;;;;;;;;;5115765;28;20551;-62
2021/04/08 03:45:36;;;;;;;26.47;12.23;;;;;;;;;;5116091;28;20484;-63
2021/04/08 03:48:03;;;;;;;23.40;12.07;;;;;;;;;;5115563;28;20819;-63
2021/04/08 03:50:32;;;;;;;29.67;11.53;;;;;;;;;;5115772;28;20445;-63
2021/04/08 03:52:58;;;;;;;31.97;12.53;;;;;;;;;;5115593;27;20465;-63
2021/04/08 03:55:25;;;;;;;34.03;12.53;;;;;;;;;;5115525;28;20940;-63
2021/04/08 03:57:53;;;;;;;27.00;12.60;;;;;;;;;;5115256;28;20453;-64
2021/04/08 04:00:20;;;;;;;29.43;12.60;;;;;;;;;;5115770;28;20452;-63
2021/04/08 04:02:47;;;;;;;28.00;11.23;;;;;;;;;;5115446;28;20514;-63
2021/04/08 04:05:14;;;;;;;28.30;11.97;;;;;;;;;;5115354;28;20477;-62
2021/04/08 04:07:48;;;;;;;32.17;12.70;;;;;;;;;;5114980;28;20446;-61
2021/04/08 04:10:15;;;;;;;33.07;12.73;;;;;;;;;;5115570;28;20479;-65
2021/04/08 04:12:42;;;;;;;23.43;11.23;;;;;;;;;;5115545;27;20476;-63
2021/04/08 04:15:09;;;;;;;28.00;11.93;;;;;;;;;;5115324;28;20453;-63
2021/04/08 04:17:36;;;;;;;29.20;11.07;;;;;;;;;;5114910;28;20449;-62
2021/04/08 04:20:04;;;;;;;26.73;11.57;;;;;;;;;;5111978;28;20528;-62
2021/04/08 04:22:31;;;;;;;23.40;10.10;;;;;;;;;;5115414;28;20472;-64
2021/04/08 04:24:58;;;;;;;25.53;11.40;;;;;;;;;;5115162;28;20500;-63
2021/04/08 04:27:24;;;;;;;26.87;11.50;;;;;;;;;;5114084;28;20445;-62
2021/04/08 04:29:51;;;;;;;25.23;10.83;;;;;;;;;;5115122;27;20865;-65
2021/04/08 04:32:17;;;;;;;25.80;11.50;;;;;;;;;;5114553;28;20461;-62
2021/04/08 04:34:45;;;;;;;27.73;11.40;;;;;;;;;;5114802;28;20450;-62
2021/04/08 04:37:12;;;;;;;23.37;10.80;;;;;;;;;;5114036;28;20596;-62
2021/04/08 04:39:39;;;;;;;23.93;11.03;;;;;;;;;;5114802;28;20456;-62
2021/04/08 04:42:08;;;;;;;26.03;10.80;;;;;;;;;;5114221;28;20504;-63
2021/04/08 04:44:34;;;;;;;24.67;10.77;;;;;;;;;;5113676;28;20473;-63
2021/04/08 04:47:02;;;;;;;34.30;11.73;;;;;;;;;;5113815;28;20481;-62
2021/04/08 04:49:28;;;;;;;33.00;10.23;;;;;;;;;;5114092;28;20506;-62
2021/04/08 04:51:55;;;;;;;23.33;10.10;;;;;;;;;;5114079;28;20527;-62
2021/04/08 04:54:22;;;;;;;27.07;10.30;;;;;;;;;;5114211;28;20825;-62
2021/04/08 04:56:49;;;;;;;26.00;9.73;;;;;;;;;;5113694;28;20938;-62
2021/04/08 04:59:16;;;;;;;18.77;9.33;;;;;;;;;;5114254;28;20442;-62
2021/04/08 05:01:43;;;;;;;21.17;8.77;;;;;;;;;;5114158;27;20457;-62
2021/04/08 05:04:09;;;;;;;16.77;8.93;;;;;;;;;;5113816;28;20472;-62
2021/04/08 05:06:36;;;;;;;26.90;9.50;;;;;;;;;;5113204;28;20488;-62
2021/04/08 05:09:02;;;;;;;21.37;10.17;;;;;;;;;;5114204;28;20449;-62
2021/04/08 05:11:29;;;;;;;22.00;10.53;;;;;;;;;;5113673;28;20970;-62
2021/04/08 05:13:56;;;;;;;25.23;10.37;;;;;;;;;;5113605;28;21019;-61
2021/04/08 05:16:23;;;;;;;21.67;8.80;;;;;;;;;;5113372;28;20532;-62
2021/04/08 05:18:50;;;;;;;18.13;9.13;;;;;;;;;;5113842;28;20456;-62
2021/04/08 05:21:16;;;;;;;18.37;8.90;;;;;;;;;;5113877;28;20480;-62
2021/04/08 05:23:43;;;;;;;19.50;8.27;;;;;;;;;;5113742;28;20469;-62
2021/04/08 05:26:09;;;;;;;22.50;9.17;;;;;;;;;;5113390;28;20489;-62
2021/04/08 05:28:36;;;;;;;23.13;9.63;;;;;;;;;;5113511;28;20475;-62
2021/04/08 05:31:02;;;;;;;18.27;8.93;;;;;;;;;;5113190;28;20450;-65
2021/04/08 05:33:30;;;;;;;17.77;8.13;;;;;;;;;;5112942;28;20466;-66
2021/04/08 05:35:56;;;;;;;19.23;7.87;;;;;;;;;;5099894;28;21029;-68
2021/04/08 05:38:23;;;;;;;16.90;8.07;;;;;;;;;;5109810;28;20446;-65
2021/04/08 05:40:50;;;;;;;15.57;8.50;;;;;;;;;;5112796;28;20464;-64
2021/04/08 05:43:17;;;;;;;20.30;8.40;;;;;;;;;;5112746;28;20465;-65
2021/04/08 05:45:45;;;;;;;16.57;7.60;;;;;;;;;;5112334;28;20486;-64
2021/04/08 05:48:12;;;;;;;21.87;7.83;;;;;;;;;;5112307;28;20461;-65
2021/04/08 05:50:39;;;;;;;13.20;7.23;;;;;;;;;;5113091;28;20456;-65
2021/04/08 05:53:06;;;;;;;16.37;6.63;;;;;;;;;;5112558;28;20476;-65
2021/04/08 05:55:32;;;;;;;17.10;8.00;;;;;;;;;;5112871;28;20498;-65
2021/04/08 05:57:59;;;;;;;14.00;6.47;;;;;;;;;;5112252;28;20450;-65
2021/04/08 06:00:26;;;;;;;15.77;7.50;;;;;;;;;;5112674;28;20461;-65
2021/04/08 06:02:52;;;;;;;14.47;6.37;;;;;;;;;;5112378;28;20474;-64
2021/04/08 06:05:19;;;;;;;16.80;7.27;;;;;;;;;;5112391;28;20485;-66
2021/04/08 06:07:46;;;;;;;14.10;6.13;;;;;;;;;;5111333;28;20858;-66
2021/04/08 06:10:13;;;;;;;12.40;6.50;;;;;;;;;;5112645;28;20475;-64
2021/04/08 06:12:40;;;;;;;17.07;6.23;;;;;;;;;;5112256;28;20491;-64
2021/04/08 06:15:08;;;;;;;16.07;6.20;;;;;;;;;;5111775;28;20441;-64
2021/04/08 06:17:34;;;;;;;18.83;7.13;;;;;;;;;;5111691;28;20448;-64
2021/04/08 06:20:01;;;;;;;16.83;6.33;;;;;;;;;;5112230;28;20453;-65
2021/04/08 06:22:27;;;;;;;11.47;5.87;;;;;;;;;;5112242;28;20870;-66
2021/04/08 06:24:55;;;;;;;14.00;6.30;;;;;;;;;;5114590;28;20456;-65
2021/04/08 06:27:21;;;;;;;13.73;7.20;;;;;;;;;;5111547;28;20850;-66
2021/04/08 06:29:48;;;;;;;13.83;6.37;;;;;;;;;;5111729;28;20985;-67
2021/04/08 06:32:14;;;;;;;15.53;6.73;;;;;;;;;;5112749;28;20453;-67
2021/04/08 06:34:41;;;;;;;17.40;7.93;;;;;;;;;;5113404;28;20483;-68
2021/04/08 06:37:08;;;;;;;16.53;8.60;;;;;;;;;;5112650;28;20443;-68
2021/04/08 06:39:35;;;;;;;18.57;8.27;;;;;;;;;;5112509;28;20450;-68
2021/04/08 06:42:03;;;;;;;15.63;8.37;;;;;;;;;;5113219;28;20499;-68
2021/04/08 06:44:32;;;;;;;20.67;9.40;;;;;;;;;;5115010;28;20510;-66
2021/04/08 06:46:59;;;;;;;15.70;9.73;;;;;;;;;;5111366;28;20481;-67
2021/04/08 06:49:33;;;;;;;25.00;9.50;;;;;;;;;;5111635;28;20885;-67
2021/04/08 06:52:00;;;;;;;20.87;10.40;;;;;;;;;;5111823;28;20494;-68
2021/04/08 06:54:29;;;;;;;13.93;9.43;;;;;;;;;;5112043;28;20820;-67
2021/04/08 06:56:57;;;;;;;17.57;9.37;;;;;;;;;;5111648;28;20450;-67
2021/04/08 06:59:24;;;;;;;20.07;9.33;;;;;;;;;;5111789;28;20536;-67
2021/04/08 07:01:51;;;;;;;19.07;10.37;;;;;;;;;;5111576;28;20465;-66
2021/04/08 07:04:17;;;;;;;20.23;10.77;;;;;;;;;;5111410;28;20470;-65
2021/04/08 07:06:45;;;;;;;13.97;9.33;;;;;;;;;;5111603;28;20557;-64
2021/04/08 07:09:13;;;;;;;21.13;11.17;;;;;;;;;;5111631;28;20522;-64
2021/04/08 07:11:40;;;;;;;17.27;11.13;;;;;;;;;;5111846;28;20460;-64
2021/04/08 07:14:08;;;;;;;18.87;11.20;;;;;;;;;;5111828;28;20548;-65
2021/04/08 07:16:35;;;;;;;19.10;11.37;;;;;;;;;;5111269;28;20492;-62
2021/04/08 07:19:02;;;;;;;16.57;10.80;;;;;;;;;;5111931;28;20451;-65
2021/04/08 07:21:29;;;;;;;19.63;11.37;;;;;;;;;;5111400;28;20452;-64
2021/04/08 07:24:09;;;;;;;15.50;10.60;;;;;;;;;;5111480;28;20469;-65
2021/04/08 07:26:50;;;;;;;16.77;11.67;;;;;;;;;;5111338;28;20483;-66
2021/04/08 07:29:16;;;;;;;17.90;11.17;;;;;;;;;;5111525;28;20454;-63
2021/04/08 07:31:44;;;;;;;20.80;12.33;;;;;;;;;;5111497;28;20449;-64
2021/04/08 07:34:10;;;;;;;16.93;11.37;;;;;;;;;;5112329;28;20986;-68
2021/04/08 07:36:37;;;;;;;15.10;9.83;;;;;;;;;;5111482;28;20462;-68
2021/04/08 07:39:05;;;;;;;20.83;11.57;;;;;;;;;;5111661;28;20442;-64
2021/04/08 07:41:33;;;;;;;19.10;10.03;;;;;;;;;;5111328;28;20458;-63
2021/04/08 07:44:00;;;;;;;21.80;10.43;;;;;;;;;;5111552;28;20479;-63
2021/04/08 07:46:34;;;;;;;13.53;10.17;;;;;;;;;;5110943;28;20511;-64
2021/04/08 07:49:02;;;;;;;16.47;10.80;;;;;;;;;;5111696;28;20978;-64
2021/04/08 07:51:29;;;;;;;18.03;11.00;;;;;;;;;;5111280;28;20459;-65
2021/04/08 07:54:11;;;;;;;25.70;11.60;;;;;;;;;;5111678;28;20466;-64
2021/04/08 07:56:38;;;;;;;16.67;10.13;;;;;;;;;;5110713;28;20470;-65
2021/04/08 07:59:17;;;;;;;16.40;10.00;;;;;;;;;;5111503;28;20453;-64
2021/04/08 08:01:45;;;;;;;16.17;9.83;;;;;;;;;;5112282;28;20445;-68
2021/04/08 08:04:19;;;;;;;13.80;9.73;;;;;;;;;;5115107;28;20512;-67
2021/04/08 08:06:46;;;;;;;14.70;8.00;;;;;;;;;;5115006;28;20484;-66
2021/04/08 08:09:13;;;;;;;13.90;6.00;;;;;;;;;;5115109;28;20445;-66
2021/04/08 08:11:40;;;;;;;12.97;7.97;;;;;;;;;;5114690;28;20824;-67
2021/04/08 08:14:09;;;;;;;12.97;7.90;;;;;;;;;;5114791;28;20469;-68
2021/04/08 08:16:36;;;;;;;14.73;8.40;;;;;;;;;;5114394;28;20873;-67
2021/04/08 08:19:03;;;;;;;16.83;8.37;;;;;;;;;;5115118;27;20453;-68
2021/04/08 08:21:35;;;;;;;12.57;7.60;;;;;;;;;;5114287;28;20449;-67
2021/04/08 08:24:05;;;;;;;12.23;7.00;;;;;;;;;;5114756;28;20992;-66
2021/04/08 08:26:33;;;;;;;13.73;7.47;;;;;;;;;;5113752;28;20510;-67
2021/04/08 08:29:01;;;;;;;12.43;6.80;;;;;;;;;;5114798;28;20961;-66
2021/04/08 08:31:38;;;;;;;13.63;7.00;;;;;;;;;;5114529;28;20453;-70
2021/04/08 08:34:06;;;;;;;8.77;6.80;;;;;;;;;;5114378;28;20465;-70
2021/04/08 08:36:34;;;;;;;13.73;7.33;;;;;;;;;;5113825;28;20453;-65
2021/04/08 08:39:01;;;;;;;12.23;7.30;;;;;;;;;;5114075;28;21002;-66
2021/04/08 08:41:28;;;;;;;11.63;7.80;;;;;;;;;;5114065;28;20549;-66
2021/04/08 08:43:55;;;;;;;11.30;7.20;;;;;;;;;;5114312;28;20469;-67
2021/04/08 08:46:22;;;;;;;12.17;6.27;;;;;;;;;;5113892;28;20639;-66
2021/04/08 08:48:49;;;;;;;10.43;5.37;;;;;;;;;;5114348;28;20457;-66
2021/04/08 08:51:16;;;;;;;9.70;5.77;;;;;;;;;;5113843;28;20490;-67
2021/04/08 08:53:44;;;;;;;11.97;6.40;;;;;;;;;;5114224;28;20477;-69
2021/04/08 08:56:11;;;;;;;7.40;5.33;;;;;;;;;;5113718;28;20453;-68
2021/04/08 08:58:37;;;;;;;8.03;5.93;;;;;;;;;;5114009;28;20456;-66
2021/04/08 09:01:04;;;;;;;12.50;5.47;;;;;;;;;;5114113;28;20450;-65
2021/04/08 09:03:30;;;;;;;9.80;4.53;;;;;;;;;;5113804;28;20578;-64
2021/04/08 09:05:59;;;;;;;8.93;3.97;;;;;;;;;;5113426;28;20538;-64
2021/04/08 09:08:29;;;;;;;9.83;4.73;;;;;;;;;;5113521;28;20456;-62
2021/04/08 09:10:56;;;;;;;15.10;5.23;;;;;;;;;;5113665;28;20487;-62
2021/04/08 09:13:24;;;;;;;7.27;4.50;;;;;;;;;;5113435;28;20465;-65
2021/04/08 09:15:51;;;;;;;11.53;5.23;;;;;;;;;;5113537;28;20824;-63
2021/04/08 09:18:20;;;;;;;11.10;5.40;;;;;;;;;;5113572;28;20453;-63
2021/04/08 09:20:48;;;;;;;8.97;4.10;;;;;;;;;;5113846;28;20792;-63
2021/04/08 09:23:18;;;;;;;8.90;4.17;;;;;;;;;;5113536;28;20251;-66
2021/04/08 09:25:50;;;;;;;4.67;2.50;;;;;;;;;;5113191;28;20216;-65
2021/04/08 09:28:18;;;;;;;7.57;3.37;;;;;;;;;;5113702;28;20188;-67
2021/04/08 09:30:51;;;;;;;5.70;3.77;;;;;;;;;;5113693;28;20481;-67
2021/04/08 09:33:19;;;;;;;6.93;3.10;;;;;;;;;;5113497;28;20557;-62
2021/04/08 09:35:46;;;;;;;7.63;3.00;;;;;;;;;;5113260;28;20199;-63
2021/04/08 09:38:22;;;;;;;7.40;2.30;;;;;;;;;;5112921;28;20457;-63
2021/04/08 09:40:58;;;;;;;6.00;2.73;;;;;;;;;;5112997;28;20211;-63
2021/04/08 09:43:26;;;;;;;4.60;2.60;;;;;;;;;;5112622;28;20288;-64
2021/04/08 09:45:54;;;;;;;6.83;2.50;;;;;;;;;;5112747;28;20280;-64
2021/04/08 09:48:22;;;;;;;8.03;2.73;;;;;;;;;;5112603;28;20211;-63
2021/04/08 09:50:49;;;;;;;5.13;2.20;;;;;;;;;;5112662;28;20204;-63
2021/04/08 09:53:17;;;;;;;8.70;3.13;;;;;;;;;;5112621;28;20238;-62
2021/04/08 09:55:49;;;;;;;8.50;2.70;;;;;;;;;;5112575;28;20234;-63
2021/04/08 09:58:19;;;;;;;4.73;2.50;;;;;;;;;;5112659;28;20965;-63
2021/04/08 10:00:47;;;;;;;7.40;2.70;;;;;;;;;;5113081;28;20235;-65
2021/04/08 10:03:13;;;;;;;9.53;4.20;;;;;;;;;;5112390;28;20262;-65
2021/04/08 10:05:41;;;;;;;5.40;3.47;;;;;;;;;;5112572;28;20219;-66
2021/04/08 10:08:09;;;;;;;7.63;3.80;;;;;;;;;;5112941;28;20452;-63
2021/04/08 10:10:40;;;;;;;6.60;3.40;;;;;;;;;;5113684;28;20205;-64
2021/04/08 10:13:16;;;;;;;8.70;3.40;;;;;;;;;;5112601;28;20224;-65
2021/04/08 10:15:43;;;;;;;4.47;2.87;;;;;;;;;;5112384;28;20211;-65
2021/04/08 10:18:11;;;;;;;5.37;3.40;;;;;;;;;;5113259;28;20453;-65
2021/04/08 10:20:39;;;;;;;6.83;3.23;;;;;;;;;;5113681;28;20222;-66
2021/04/08 10:23:06;;;;;;;4.80;3.10;;;;;;;;;;5115236;28;20227;-66
2021/04/08 10:25:33;;;;;;;7.97;3.10;;;;;;;;;;5113938;28;20223;-65
2021/04/08 10:28:00;;;;;;;5.03;3.23;;;;;;;;;;5113851;28;20456;-65
2021/04/08 10:30:27;;;;;;;5.87;3.43;;;;;;;;;;5114401;27;20450;-65
2021/04/08 10:32:54;;;;;;;6.77;3.47;;;;;;;;;;5114703;28;20268;-65
2021/04/08 10:35:26;;;;;;;8.83;2.93;;;;;;;;;;5113163;28;21010;-65
2021/04/08 10:37:59;;;;;;;5.57;3.20;;;;;;;;;;5112076;28;20484;-65
2021/04/08 10:40:26;;;;;;;5.93;3.73;;;;;;;;;;5113340;28;20553;-65
2021/04/08 10:42:53;;;;;;;5.93;3.43;;;;;;;;;;5113536;28;20232;-64
2021/04/08 10:45:20;;;;;;;8.73;3.90;;;;;;;;;;5113475;28;20253;-64
2021/04/08 10:47:46;;;;;;;5.60;3.70;;;;;;;;;;5111739;28;20226;-65
2021/04/08 10:50:17;;;;;;;4.50;3.30;;;;;;;;;;5112273;28;20237;-66
2021/04/08 10:52:47;;;;;;;6.73;3.30;;;;;;;;;;5112547;28;20727;-66
2021/04/08 10:55:14;;;;;;;5.80;3.70;;;;;;;;;;5112284;28;20206;-63
2021/04/08 10:57:42;;;;;;;5.70;4.00;;;;;;;;;;5112913;28;20214;-60
2021/04/08 11:00:09;;;;;;;4.47;3.73;;;;;;;;;;5111965;28;20582;-61
2021/04/08 11:02:36;;;;;;;9.80;4.43;;;;;;;;;;5111841;28;20235;-66
2021/04/08 11:05:05;;;;;;;4.67;3.70;;;;;;;;;;5112619;28;20577;-66
2021/04/08 11:07:36;;;;;;;7.70;3.80;;;;;;;;;;5111338;28;20289;-67
2021/04/08 11:10:08;;;;;;;9.47;4.00;;;;;;;;;;5112596;28;20206;-67
2021/04/08 11:12:35;;;;;;;5.80;3.80;;;;;;;;;;5112148;28;20266;-71
2021/04/08 11:15:06;;;;;;;4.90;3.80;;;;;;;;;;5112043;28;20669;-69
2021/04/08 11:17:34;;;;;;;7.87;4.53;;;;;;;;;;5111985;28;20197;-65
2021/04/08 11:20:00;;;;;;;6.90;4.70;;;;;;;;;;5112173;28;20622;-66
2021/04/08 11:22:29;;;;;;;10.00;4.00;;;;;;;;;;5112018;28;20606;-64
2021/04/08 11:24:56;;;;;;;4.73;3.77;;;;;;;;;;5112416;28;20209;-65
2021/04/08 11:27:27;;;;;;;7.17;3.80;;;;;;;;;;5111057;28;20227;-65
2021/04/08 11:29:53;;;;;;;8.80;3.80;;;;;;;;;;5111811;28;20206;-65
2021/04/08 11:32:20;;;;;;;5.53;3.80;;;;;;;;;;5111918;28;20670;-64
2021/04/08 11:34:47;;;;;;;4.57;3.97;;;;;;;;;;5112100;28;20208;-64
2021/04/08 11:37:15;;;;;;;8.07;3.87;;;;;;;;;;5114246;28;20203;-65
2021/04/08 11:39:42;;;;;;;6.23;3.83;;;;;;;;;;5115784;27;20294;-66
2021/04/08 11:42:19;;;;;;;6.70;4.40;;;;;;;;;;5115224;28;20743;-67
2021/04/08 11:44:47;;;;;;;6.30;4.57;;;;;;;;;;5116007;27;20210;-66
2021/04/08 11:47:14;;;;;;;6.03;4.90;;;;;;;;;;5115057;28;20224;-69
2021/04/08 11:49:48;;;;;;;5.40;4.53;;;;;;;;;;5115507;28;20211;-68
2021/04/08 11:52:16;;;;;;;5.27;4.70;;;;;;;;;;5115434;28;20675;-67
2021/04/08 11:54:59;;;;;;;5.53;4.27;;;;;;;;;;5115332;28;20267;-69
2021/04/08 11:57:26;;;;;;;9.67;5.00;;;;;;;;;;5115046;28;20209;-67
2021/04/08 11:59:59;;;;;;;8.27;4.70;;;;;;;;;;5115334;28;20212;-68
2021/04/08 12:02:30;;;;;;;9.03;5.67;;;;;;;;;;5115267;28;20224;-68
2021/04/08 12:04:57;;;;;;;7.70;3.90;;;;;;;;;;5115133;28;20207;-66
2021/04/08 12:07:23;;;;;;;7.93;4.70;;;;;;;;;;5114421;28;20223;-67
2021/04/08 12:09:50;;;;;;;4.47;3.77;;;;;;;;;;5114989;28;20211;-68
2021/04/08 12:12:16;;;;;;;5.83;4.47;;;;;;;;;;5115494;28;20243;-68
2021/04/08 12:14:52;;;;;;;7.37;4.87;;;;;;;;;;5115276;28;20218;-69
2021/04/08 12:17:20;;;;;;;5.40;3.90;;;;;;;;;;5114596;28;20206;-66
2021/04/08 12:19:46;;;;;;;6.67;4.10;;;;;;;;;;5114772;28;20207;-64
2021/04/08 12:22:13;;;;;;;8.13;4.77;;;;;;;;;;5114814;27;20213;-65
2021/04/08 12:24:40;;;;;;;8.57;4.57;;;;;;;;;;5114837;28;20207;-65
2021/04/08 12:27:15;;;;;;;6.27;4.80;;;;;;;;;;5113912;28;20231;-65
2021/04/08 12:29:42;;;;;;;7.73;5.43;;;;;;;;;;5114611;28;20722;-64
2021/04/08 12:32:08;;;;;;;8.60;4.17;;;;;;;;;;5114429;28;20211;-65
2021/04/08 12:34:36;;;;;;;5.83;5.03;;;;;;;;;;5114697;28;20685;-65
2021/04/08 12:37:02;;;;;;;7.10;4.50;;;;;;;;;;5114371;28;20630;-64
2021/04/08 12:39:29;;;;;;;7.40;4.57;;;;;;;;;;5114382;28;20731;-69
2021/04/08 12:41:56;;;;;;;8.03;5.53;;;;;;;;;;5114311;28;20207;-69
2021/04/08 12:44:22;;;;;;;8.20;5.40;;;;;;;;;;5114113;28;20227;-64
2021/04/08 12:46:49;;;;;;;9.10;5.77;;;;;;;;;;5113857;28;20233;-64
2021/04/08 12:49:16;;;;;;;8.30;5.23;;;;;;;;;;5113355;28;20245;-65
2021/04/08 12:51:43;;;;;;;6.10;4.80;;;;;;;;;;5114393;28;20213;-65
2021/04/08 12:54:10;;;;;;;7.03;5.23;;;;;;;;;;5114197;28;20339;-65
2021/04/08 12:56:38;;;;;;;8.03;5.53;;;;;;;;;;5113609;28;20572;-64
2021/04/08 12:59:04;;;;;;;8.17;5.03;;;;;;;;;;5114553;28;20635;-66
2021/04/08 13:01:31;;;;;;;7.70;5.43;;;;;;;;;;5113523;28;20272;-66
2021/04/08 13:03:57;;;;;;;9.80;5.30;;;;;;;;;;5113931;28;20230;-67
2021/04/08 13:06:24;;;;;;;6.70;5.20;;;;;;;;;;5113527;28;20223;-66
2021/04/08 13:08:51;;;;;;;7.77;5.53;;;;;;;;;;5113812;28;20884;-67
2021/04/08 13:11:18;;;;;;;7.30;5.10;;;;;;;;;;5113663;28;20211;-64
2021/04/08 13:13:45;;;;;;;6.67;5.73;;;;;;;;;;5112999;28;20343;-65
2021/04/08 13:16:11;;;;;;;10.50;5.60;;;;;;;;;;5113325;28;20202;-67
2021/04/08 13:18:38;;;;;;;6.70;4.97;;;;;;;;;;5112682;28;20209;-67
2021/04/08 13:21:05;;;;;;;11.60;5.57;;;;;;;;;;5113404;28;20203;-65
2021/04/08 13:23:31;;;;;;;7.17;5.73;;;;;;;;;;5113356;28;20227;-66
2021/04/08 13:25:59;;;;;;;9.93;6.80;;;;;;;;;;5113105;28;20227;-66
2021/04/08 13:28:25;;;;;;;7.00;6.27;;;;;;;;;;5113048;28;20214;-66
2021/04/08 13:30:52;;;;;;;9.17;6.53;;;;;;;;;;5113508;28;20231;-65
2021/04/08 13:33:18;;;;;;;8.00;5.87;;;;;;;;;;5113608;27;20599;-66
2021/04/08 13:35:45;;;;;;;7.33;6.53;;;;;;;;;;5113527;28;20702;-66
2021/04/08 13:38:11;;;;;;;9.13;5.70;;;;;;;;;;5113037;28;20554;-65
2021/04/08 13:40:38;;;;;;;11.10;6.27;;;;;;;;;;5113208;28;20586;-65
2021/04/08 13:43:05;;;;;;;9.10;6.30;;;;;;;;;;5113127;28;20318;-66
2021/04/08 13:45:32;;;;;;;10.03;6.50;;;;;;;;;;5113292;28;20211;-65
2021/04/08 13:47:58;;;;;;;10.23;7.17;;;;;;;;;;5112772;28;20207;-66
2021/04/08 13:50:25;;;;;;;10.87;6.23;;;;;;;;;;5113089;28;20207;-65
2021/04/08 13:52:52;;;;;;;11.23;5.83;;;;;;;;;;5113283;28;20219;-65
2021/04/08 13:55:19;;;;;;;8.03;6.47;;;;;;;;;;5112761;28;20214;-65
2021/04/08 13:57:46;;;;;;;9.60;7.10;;;;;;;;;;5112136;27;20232;-68
2021/04/08 14:00:16;;;;;;;9.03;6.97;;;;;;;;;;5111968;28;20210;-67
2021/04/08 14:02:43;;;;;;;10.20;7.67;;;;;;;;;;5112967;28;20231;-63
2021/04/08 14:05:10;;;;;;;10.80;6.83;;;;;;;;;;5113097;28;20233;-63
2021/04/08 14:07:37;;;;;;;10.47;4.97;;;;;;;;;;5112210;28;20318;-63
2021/04/08 14:10:04;;;;;;;9.50;7.07;;;;;;;;;;5113006;28;20212;-63
2021/04/08 14:12:30;;;;;;;10.37;6.83;;;;;;;;;;5112580;28;20226;-65
2021/04/08 14:14:57;;;;;;;8.97;6.53;;;;;;;;;;5113251;28;20745;-66
2021/04/08 14:17:24;;;;;;;9.80;6.77;;;;;;;;;;5112017;28;20575;-62
2021/04/08 14:19:51;;;;;;;10.03;6.43;;;;;;;;;;5112765;28;20208;-63
2021/04/08 14:22:17;;;;;;;13.87;7.20;;;;;;;;;;5112991;28;20203;-63
2021/04/08 14:24:44;;;;;;;8.97;6.00;;;;;;;;;;5112091;28;20229;-64
2021/04/08 14:27:10;;;;;;;12.57;6.73;;;;;;;;;;5111671;28;20250;-64
2021/04/08 14:29:37;;;;;;;8.30;6.87;;;;;;;;;;5112824;28;20210;-64
2021/04/08 14:32:05;;;;;;;11.17;7.73;;;;;;;;;;5112694;28;20620;-63
2021/04/08 14:34:32;;;;;;;12.37;7.33;;;;;;;;;;5112663;28;20200;-64